Etusivu
METAR-TAF:

METAR-TAF

Lentoasemat :

Kärdla, Viro

Kärdlan lentoasema

Leveyspiiri: 58-59N, Pituuspiiri: 022-49E, korkeus merenpinnasta: 5 m

Tämänhetkinen sää

Tämä raportti tehtiin 9 tuntia ja 26 minuuttia sitten, kello 14.50 UTC
Tuuli 7 kn pohjoisesta
Lämpötila 16°C
Kosteus 51%
Ilmanpaine 1012 hPa
Näkyvyys 10 km tai enemmän
ei pilviä alle 1500 m:ssä eikä cumulonimbus-pilviä

METAR: EEKA 281450Z 35007KT CAVOK 16/06 Q1012

Aika: 03:16 (00:16 UTC)

Sääennuste

Tämä raportti tehtiin 12 tuntia ja 16 minuuttia sitten, kello 12.00 UTC
Ennuste voimassa 28. päivästä klo 13 UTC - 28. päivään klo 19 UTC
Tuuli 10 kn pohjoisesta
Näkyvyys 10 km tai enemmän
Hajanaisia pilviä 3500 ft:n korkeudessa

TAF: EEKA 281200Z 2813/2819 35010KT 9999 SCT035

Säähavainnot ja -ennusteet yli 4000 lentoasemalta (METAR- ja TAF-raportit).

Käytössä olevat sääasemat on merkitty karttaan keltaisilla ja punaisilla pisteillä.

Aseta hiiri pisteen päälle nähdäksesi sääaseman nimen.

Klikkaa sitten nähdäksesi säähavainnot ja -ennusteet.

Kartan vaihtaminen: klikkaa mustalla rastilla varustettuja vihreitä pisteitä, niin voit zoomata sisään; viivalla varustettua vihreää pistettä, niin voit zoomata ulos tai vihreitä nuolia, niin pääset viereisille kartoille.


METAR-TAF: